createdAt,value
2022-08-30T00:00:09.945Z,19.90
2022-08-30T00:02:37.725Z,19.90
2022-08-30T00:05:05.838Z,20.00
2022-08-30T00:07:33.706Z,20.10
2022-08-30T00:10:01.776Z,20.10
2022-08-30T00:12:32.646Z,20.20
2022-08-30T00:15:00.452Z,20.30
2022-08-30T00:17:28.163Z,20.30
2022-08-30T00:19:57.312Z,20.10
2022-08-30T00:22:25.227Z,19.90
2022-08-30T00:24:52.989Z,19.70
2022-08-30T00:27:20.684Z,19.60
2022-08-30T00:29:49.755Z,19.40
2022-08-30T00:32:18.041Z,19.40
2022-08-30T00:34:45.754Z,19.30
2022-08-30T00:37:13.504Z,19.20
2022-08-30T00:39:41.236Z,19.10
2022-08-30T00:42:09.025Z,19.00
2022-08-30T00:44:37.050Z,19.10
2022-08-30T00:47:06.362Z,19.10
2022-08-30T00:49:34.404Z,19.00
2022-08-30T00:52:02.781Z,18.90
2022-08-30T00:54:34.312Z,18.80
2022-08-30T00:57:02.033Z,18.70
2022-08-30T00:59:30.177Z,18.70
2022-08-30T01:01:57.996Z,18.70
2022-08-30T01:04:27.441Z,18.60
2022-08-30T01:06:55.674Z,18.60
2022-08-30T01:09:23.823Z,18.60
2022-08-30T01:11:51.648Z,18.70
2022-08-30T01:14:22.024Z,18.70
2022-08-30T01:16:56.075Z,18.70
2022-08-30T01:19:31.126Z,18.70
2022-08-30T01:22:03.087Z,19.00
2022-08-30T01:24:33.124Z,19.10
2022-08-30T01:27:00.866Z,19.30
2022-08-30T01:29:29.290Z,19.50
2022-08-30T01:31:57.026Z,19.60
2022-08-30T01:34:25.547Z,19.70
2022-08-30T01:36:53.242Z,20.00
2022-08-30T01:39:21.220Z,20.10
2022-08-30T01:41:50.323Z,19.90
2022-08-30T01:44:18.028Z,19.60
2022-08-30T01:46:46.625Z,19.30
2022-08-30T01:49:15.835Z,19.30
2022-08-30T01:51:43.594Z,19.10
2022-08-30T01:54:12.079Z,18.90
2022-08-30T01:56:39.808Z,18.80
2022-08-30T01:59:08.891Z,18.90
2022-08-30T02:01:39.488Z,18.90
2022-08-30T02:04:07.785Z,18.80
2022-08-30T02:06:35.650Z,18.70
2022-08-30T02:09:03.671Z,18.80
2022-08-30T02:11:31.514Z,18.80
2022-08-30T02:13:59.233Z,19.10
2022-08-30T02:16:28.392Z,19.10
2022-08-30T02:18:57.072Z,19.20
2022-08-30T02:21:25.562Z,19.10
2022-08-30T02:23:53.513Z,19.20
2022-08-30T02:26:21.568Z,19.10
2022-08-30T02:28:50.419Z,19.20
2022-08-30T02:31:19.477Z,19.30
2022-08-30T02:33:51.251Z,19.20
2022-08-30T02:36:19.168Z,19.40
2022-08-30T02:38:47.211Z,19.70
2022-08-30T02:41:15.197Z,19.90
2022-08-30T02:43:43.024Z,20.10
2022-08-30T02:46:10.815Z,20.10
2022-08-30T02:48:38.603Z,20.00
2022-08-30T02:51:09.574Z,19.70
2022-08-30T02:53:39.702Z,19.70
2022-08-30T02:56:07.697Z,19.30
2022-08-30T02:58:35.719Z,19.10
2022-08-30T03:01:03.548Z,18.70
2022-08-30T03:03:31.399Z,18.70
2022-08-30T03:05:59.317Z,18.50
2022-08-30T03:08:28.368Z,18.50
2022-08-30T03:10:56.861Z,18.40
2022-08-30T03:13:24.962Z,18.30
2022-08-30T03:15:52.755Z,18.20
2022-08-30T03:18:21.042Z,18.10
2022-08-30T03:20:54.205Z,18.00
2022-08-30T03:23:23.474Z,18.00
2022-08-30T03:25:53.416Z,18.10
2022-08-30T03:28:21.627Z,18.10
2022-08-30T03:30:49.344Z,18.00
2022-08-30T03:33:18.493Z,17.90
2022-08-30T03:35:48.041Z,18.10
2022-08-30T03:38:15.747Z,18.30
2022-08-30T03:40:43.935Z,18.30
2022-08-30T03:43:13.114Z,18.30
2022-08-30T03:45:41.200Z,18.30
2022-08-30T03:48:09.019Z,18.30
2022-08-30T03:50:36.894Z,18.40
2022-08-30T03:53:04.667Z,18.50
2022-08-30T03:55:32.433Z,18.50
2022-08-30T03:58:00.281Z,18.40
2022-08-30T04:00:29.391Z,18.20
2022-08-30T04:02:57.131Z,18.10
2022-08-30T04:05:24.849Z,17.90
2022-08-30T04:07:52.891Z,17.90
2022-08-30T04:10:21.619Z,18.10
2022-08-30T04:12:49.899Z,18.30
2022-08-30T04:15:18.342Z,18.30
2022-08-30T04:17:48.019Z,18.20
2022-08-30T04:20:15.799Z,18.00
2022-08-30T04:22:43.732Z,17.80
2022-08-30T04:25:15.435Z,17.90
2022-08-30T04:27:43.924Z,17.80
2022-08-30T04:30:12.396Z,17.90
2022-08-30T04:32:40.113Z,17.90
2022-08-30T04:35:09.814Z,17.80
2022-08-30T04:37:38.222Z,17.90
2022-08-30T04:40:06.726Z,17.80
2022-08-30T04:42:35.962Z,17.90
2022-08-30T04:45:06.037Z,17.80
2022-08-30T04:47:33.751Z,17.70
2022-08-30T04:50:01.529Z,17.80
2022-08-30T04:52:30.728Z,17.70
2022-08-30T04:54:59.548Z,17.70
2022-08-30T04:57:27.943Z,17.60
2022-08-30T04:59:56.010Z,17.50
2022-08-30T05:02:24.062Z,17.40
2022-08-30T05:05:09.533Z,17.50
2022-08-30T05:07:39.324Z,17.60
2022-08-30T05:10:11.084Z,17.70
2022-08-30T05:12:39.610Z,17.70
2022-08-30T05:15:07.780Z,17.70
2022-08-30T05:17:35.506Z,17.60
2022-08-30T05:20:03.687Z,17.60
2022-08-30T05:22:31.417Z,17.70
2022-08-30T05:25:01.015Z,17.70
2022-08-30T05:27:28.792Z,17.70
2022-08-30T05:29:56.654Z,17.80
2022-08-30T05:32:24.904Z,17.80
2022-08-30T05:34:52.630Z,18.20
2022-08-30T05:37:20.359Z,18.40
2022-08-30T05:39:51.365Z,18.70
2022-08-30T05:42:21.050Z,18.80
2022-08-30T05:44:52.055Z,18.80
2022-08-30T05:47:19.835Z,18.70
2022-08-30T05:49:47.569Z,18.60
2022-08-30T05:52:18.061Z,18.50
2022-08-30T05:54:45.860Z,18.60
2022-08-30T05:57:13.621Z,18.60
2022-08-30T05:59:42.751Z,18.50
2022-08-30T06:02:10.816Z,18.40
2022-08-30T06:04:38.570Z,18.20
2022-08-30T06:07:06.312Z,18.10
2022-08-30T06:09:34.059Z,18.00
2022-08-30T06:12:01.830Z,17.90
2022-08-30T06:14:29.589Z,17.90
2022-08-30T06:16:58.659Z,17.90
2022-08-30T06:19:26.395Z,17.90
2022-08-30T06:21:54.148Z,18.00
2022-08-30T06:24:35.718Z,18.10
2022-08-30T06:27:10.942Z,18.10
2022-08-30T06:29:38.634Z,18.20
2022-08-30T06:32:07.738Z,18.30
2022-08-30T06:34:35.458Z,18.30
2022-08-30T06:37:03.164Z,18.50
2022-08-30T06:39:30.918Z,18.60
2022-08-30T06:41:58.639Z,18.80
2022-08-30T06:44:26.350Z,18.90
2022-08-30T06:46:54.825Z,18.90
2022-08-30T06:49:23.942Z,19.00
2022-08-30T06:51:51.902Z,19.00
2022-08-30T06:54:19.638Z,19.00
2022-08-30T06:57:02.676Z,19.10
2022-08-30T06:59:31.614Z,19.30
2022-08-30T07:01:59.497Z,19.40
2022-08-30T07:04:28.720Z,19.60
2022-08-30T07:06:56.431Z,19.70
2022-08-30T07:09:24.517Z,19.80
2022-08-30T07:11:52.800Z,19.80
2022-08-30T07:14:20.607Z,19.90
2022-08-30T07:16:51.269Z,19.90
2022-08-30T07:19:20.561Z,20.10
2022-08-30T07:21:50.668Z,20.20
2022-08-30T07:24:19.122Z,20.40
2022-08-30T07:26:49.069Z,20.60
2022-08-30T07:29:16.970Z,20.70
2022-08-30T07:31:44.747Z,20.80
2022-08-30T07:34:12.556Z,21.00
2022-08-30T07:36:40.477Z,21.00
2022-08-30T07:39:09.800Z,21.10
2022-08-30T07:41:38.710Z,21.10
2022-08-30T07:44:06.944Z,21.10
2022-08-30T07:46:35.506Z,21.20
2022-08-30T07:49:04.083Z,21.30
2022-08-30T07:51:32.590Z,21.50
2022-08-30T07:54:00.406Z,21.60
2022-08-30T07:56:29.480Z,21.70
2022-08-30T07:58:57.516Z,21.70
2022-08-30T08:01:25.339Z,21.80
2022-08-30T08:03:53.093Z,21.90
2022-08-30T08:06:46.344Z,22.00
2022-08-30T08:09:14.087Z,22.30
2022-08-30T08:11:43.155Z,22.50
2022-08-30T08:14:10.963Z,22.60
2022-08-30T08:16:39.266Z,22.80
2022-08-30T08:19:09.084Z,22.90
2022-08-30T08:21:37.476Z,22.80
2022-08-30T08:24:05.542Z,22.70
2022-08-30T08:26:34.908Z,22.70
2022-08-30T08:29:04.413Z,22.70
2022-08-30T08:31:33.730Z,23.00
2022-08-30T08:34:02.893Z,23.10
2022-08-30T08:36:31.722Z,23.30
2022-08-30T08:38:59.517Z,23.40
2022-08-30T08:41:32.802Z,23.50
2022-08-30T08:44:00.668Z,23.50
2022-08-30T08:46:31.873Z,23.70
2022-08-30T08:49:03.080Z,23.60
2022-08-30T08:51:50.465Z,23.70
2022-08-30T08:54:22.279Z,23.70
2022-08-30T08:56:49.995Z,23.70
2022-08-30T08:59:18.516Z,24.00
2022-08-30T09:01:48.181Z,24.20
2022-08-30T09:04:20.593Z,24.40
2022-08-30T09:06:53.998Z,24.50
2022-08-30T09:09:23.004Z,24.50
2022-08-30T09:11:50.793Z,24.50
2022-08-30T09:14:20.636Z,24.50
2022-08-30T09:16:51.434Z,24.70
2022-08-30T09:19:30.562Z,24.90
2022-08-30T09:22:03.441Z,25.20
2022-08-30T09:24:38.106Z,25.20
2022-08-30T09:27:23.783Z,25.40
2022-08-30T09:30:02.968Z,25.60
2022-08-30T09:32:33.930Z,25.90
2022-08-30T09:35:01.863Z,25.80
2022-08-30T09:37:31.594Z,25.90
2022-08-30T09:40:00.689Z,26.10
2022-08-30T09:42:29.363Z,26.10
2022-08-30T09:45:10.312Z,26.30
2022-08-30T09:47:41.902Z,26.50
2022-08-30T09:50:11.916Z,26.70
2022-08-30T09:52:43.320Z,26.90
2022-08-30T09:55:16.345Z,27.10
2022-08-30T09:57:46.313Z,27.30
2022-08-30T10:00:16.324Z,27.50
2022-08-30T10:02:49.274Z,27.70
2022-08-30T10:05:21.540Z,27.70
2022-08-30T10:07:53.709Z,27.60
2022-08-30T10:10:25.885Z,27.80
2022-08-30T10:13:01.166Z,27.90
2022-08-30T10:15:32.242Z,27.90
2022-08-30T10:18:04.646Z,28.00
2022-08-30T10:20:34.576Z,28.20
2022-08-30T10:23:06.182Z,28.50
2022-08-30T10:25:36.192Z,28.40
2022-08-30T10:28:05.811Z,28.30
2022-08-30T10:30:35.410Z,28.20
2022-08-30T10:33:07.125Z,28.10
2022-08-30T10:35:39.060Z,28.30
2022-08-30T10:38:09.132Z,28.50
2022-08-30T10:40:55.688Z,28.70
2022-08-30T10:43:25.740Z,29.00
2022-08-30T10:45:56.178Z,29.10
2022-08-30T10:48:28.170Z,29.30
2022-08-30T10:50:57.698Z,29.20
2022-08-30T10:53:29.297Z,29.40
2022-08-30T10:56:01.737Z,29.50
2022-08-30T10:58:31.336Z,29.40
2022-08-30T11:01:06.312Z,29.20
2022-08-30T11:03:49.827Z,29.40
2022-08-30T11:06:20.981Z,29.40
2022-08-30T11:08:58.771Z,29.30
2022-08-30T11:11:31.138Z,29.50
2022-08-30T11:14:05.728Z,29.60
2022-08-30T11:16:37.884Z,30.00
2022-08-30T11:19:14.561Z,30.20
2022-08-30T11:21:44.213Z,30.60
2022-08-30T11:24:13.162Z,30.80
2022-08-30T11:27:12.709Z,30.60
2022-08-30T11:29:42.119Z,30.70
2022-08-30T11:32:24.116Z,30.40
2022-08-30T11:35:00.827Z,30.50
2022-08-30T11:37:33.743Z,31.10
2022-08-30T11:40:03.881Z,31.50
2022-08-30T11:42:33.900Z,31.30
2022-08-30T11:45:20.779Z,31.30
2022-08-30T11:47:50.829Z,31.50
2022-08-30T11:50:21.426Z,31.40
2022-08-30T11:52:54.969Z,31.50
2022-08-30T11:55:43.624Z,31.50
2022-08-30T11:58:18.032Z,31.70
2022-08-30T12:00:51.454Z,31.80
2022-08-30T12:03:29.592Z,31.70
2022-08-30T12:06:01.618Z,31.60
2022-08-30T12:08:48.191Z,31.70
2022-08-30T12:11:34.510Z,32.10
2022-08-30T12:14:02.758Z,32.40
2022-08-30T12:16:36.589Z,32.80
2022-08-30T12:19:11.263Z,32.60
2022-08-30T12:21:44.741Z,32.60
2022-08-30T12:24:18.621Z,32.60
2022-08-30T12:26:47.536Z,32.50
2022-08-30T12:29:17.210Z,32.70
2022-08-30T12:31:47.577Z,33.00
2022-08-30T12:34:26.281Z,33.20
2022-08-30T12:36:58.516Z,33.20
2022-08-30T12:39:27.539Z,33.30
2022-08-30T12:41:55.354Z,33.30
2022-08-30T12:44:24.849Z,33.30
2022-08-30T12:46:58.940Z,33.40
2022-08-30T12:49:28.990Z,33.40
2022-08-30T12:52:16.066Z,33.60
2022-08-30T12:54:44.495Z,33.60
2022-08-30T12:57:32.416Z,33.70
2022-08-30T13:00:02.040Z,34.50
2022-08-30T13:02:42.964Z,34.90
2022-08-30T13:05:25.611Z,35.00
2022-08-30T13:08:08.454Z,35.00
2022-08-30T13:10:36.291Z,34.90
2022-08-30T13:13:05.523Z,35.10
2022-08-30T13:15:34.531Z,35.80
2022-08-30T13:18:18.202Z,36.30
2022-08-30T13:21:09.468Z,36.50
2022-08-30T13:23:38.554Z,36.40
2022-08-30T13:26:07.535Z,35.80
2022-08-30T13:28:43.624Z,35.40
2022-08-30T13:31:16.519Z,34.90
2022-08-30T13:33:46.032Z,34.90
2022-08-30T13:36:14.515Z,35.20
2022-08-30T13:38:49.678Z,35.30
2022-08-30T13:41:17.630Z,35.10
2022-08-30T13:46:33.883Z,34.80
2022-08-30T13:49:04.729Z,34.50
2022-08-30T13:51:32.718Z,34.40
2022-08-30T13:54:02.460Z,34.20
2022-08-30T13:56:32.042Z,33.90
2022-08-30T13:58:59.787Z,34.20
2022-08-30T14:01:30.628Z,34.10
2022-08-30T14:04:18.337Z,34.80
2022-08-30T14:09:35.760Z,36.10
2022-08-30T14:12:03.668Z,36.70
2022-08-30T14:14:42.541Z,36.50
2022-08-30T14:17:12.432Z,35.60
2022-08-30T14:19:40.467Z,34.70
2022-08-30T14:22:08.177Z,34.10
2022-08-30T14:24:37.571Z,33.60
2022-08-30T14:27:05.344Z,32.90
2022-08-30T14:29:33.060Z,33.00
2022-08-30T14:32:03.194Z,33.40
2022-08-30T14:34:30.987Z,33.00
2022-08-30T14:37:00.776Z,33.20
2022-08-30T14:39:28.593Z,33.20
2022-08-30T14:41:57.633Z,33.10
2022-08-30T14:44:45.682Z,33.70
2022-08-30T14:47:19.038Z,34.20
2022-08-30T14:49:46.877Z,34.20
2022-08-30T14:52:14.698Z,33.60
2022-08-30T14:54:42.497Z,33.10
2022-08-30T14:57:11.665Z,33.00
2022-08-30T14:59:39.379Z,33.10
2022-08-30T15:02:07.435Z,33.30
2022-08-30T15:04:35.358Z,33.50
2022-08-30T15:07:03.251Z,34.00
2022-08-30T15:09:32.700Z,34.20
2022-08-30T15:12:03.448Z,34.40
2022-08-30T15:14:32.646Z,34.50
2022-08-30T15:17:02.643Z,34.60
2022-08-30T15:19:31.043Z,34.40
2022-08-30T15:22:00.147Z,33.60
2022-08-30T15:24:29.941Z,33.20
2022-08-30T15:26:59.603Z,32.80
2022-08-30T15:29:27.785Z,32.80
2022-08-30T15:32:00.415Z,33.00
2022-08-30T15:34:28.700Z,33.30
2022-08-30T15:36:56.748Z,33.60
2022-08-30T15:39:24.885Z,33.70
2022-08-30T15:41:56.051Z,33.80
2022-08-30T15:44:27.651Z,33.50
2022-08-30T15:46:55.571Z,33.20
2022-08-30T15:49:24.873Z,32.60
2022-08-30T15:51:54.030Z,32.20
2022-08-30T15:54:23.118Z,32.00
2022-08-30T15:56:58.772Z,31.70
2022-08-30T15:59:26.727Z,31.40
2022-08-30T16:01:54.460Z,31.20
2022-08-30T16:04:23.012Z,31.00
2022-08-30T16:06:52.075Z,30.60
2022-08-30T16:09:20.360Z,30.30
2022-08-30T16:11:48.898Z,30.20
2022-08-30T16:14:16.834Z,30.00
2022-08-30T16:16:46.192Z,29.80
2022-08-30T16:19:13.931Z,29.60
2022-08-30T16:21:42.738Z,29.40
2022-08-30T16:24:13.905Z,29.40
2022-08-30T16:26:42.446Z,29.20
2022-08-30T16:29:10.531Z,29.00
2022-08-30T16:31:38.870Z,28.90
2022-08-30T16:34:07.043Z,28.80
2022-08-30T16:36:35.946Z,28.70
2022-08-30T16:39:04.223Z,28.60
2022-08-30T16:41:37.957Z,28.50
2022-08-30T16:44:06.786Z,28.40
2022-08-30T16:46:36.617Z,28.40
2022-08-30T16:49:05.372Z,28.30
2022-08-30T16:51:35.130Z,28.30
2022-08-30T16:54:04.044Z,28.30
2022-08-30T16:56:33.180Z,28.20
2022-08-30T16:59:03.251Z,28.20
2022-08-30T17:01:34.989Z,28.10
2022-08-30T17:04:03.634Z,28.10
2022-08-30T17:06:32.153Z,27.90
2022-08-30T17:08:59.999Z,27.80
2022-08-30T17:11:28.012Z,27.80
2022-08-30T17:13:55.889Z,27.70
2022-08-30T17:16:27.425Z,27.80
2022-08-30T17:18:55.943Z,27.70
2022-08-30T17:21:27.469Z,27.70
2022-08-30T17:24:01.451Z,27.60
2022-08-30T17:26:30.071Z,27.60
2022-08-30T17:28:57.872Z,27.60
2022-08-30T17:31:29.096Z,27.50
2022-08-30T17:34:01.182Z,27.40
2022-08-30T17:36:31.483Z,27.40
2022-08-30T17:38:59.208Z,27.30
2022-08-30T17:41:26.905Z,27.20
2022-08-30T17:43:54.974Z,27.10
2022-08-30T17:46:22.809Z,27.10
2022-08-30T17:48:56.575Z,27.00
2022-08-30T17:51:29.389Z,27.00
2022-08-30T17:53:57.863Z,26.90
2022-08-30T17:56:34.229Z,26.80
2022-08-30T17:59:05.571Z,26.80
2022-08-30T18:01:33.332Z,26.70
2022-08-30T18:04:05.880Z,26.70
2022-08-30T18:06:34.227Z,26.60
2022-08-30T18:09:01.983Z,26.50
2022-08-30T18:11:29.799Z,26.50
2022-08-30T18:13:57.556Z,26.40
2022-08-30T18:16:26.679Z,26.40
2022-08-30T18:18:57.320Z,26.30
2022-08-30T18:21:28.354Z,26.30
2022-08-30T18:23:57.259Z,26.20
2022-08-30T18:26:27.531Z,26.20
2022-08-30T18:28:56.072Z,26.10
2022-08-30T18:31:23.830Z,26.00
2022-08-30T18:33:51.589Z,25.90
2022-08-30T18:36:19.472Z,25.80
2022-08-30T18:38:48.575Z,25.80
2022-08-30T18:41:16.573Z,25.80
2022-08-30T18:43:44.753Z,25.60
2022-08-30T18:46:14.320Z,25.60
2022-08-30T18:48:42.398Z,25.50
2022-08-30T18:51:11.156Z,25.40
2022-08-30T18:53:39.310Z,25.30
2022-08-30T18:56:10.045Z,25.20
2022-08-30T18:58:40.201Z,25.10
2022-08-30T19:01:12.720Z,25.00
2022-08-30T19:03:41.815Z,24.90
2022-08-30T19:06:12.289Z,24.80
2022-08-30T19:08:41.232Z,24.80
2022-08-30T19:11:14.915Z,24.70
2022-08-30T19:13:42.658Z,24.70
2022-08-30T19:18:58.426Z,24.50
2022-08-30T19:21:26.205Z,24.50
2022-08-30T19:23:55.153Z,24.40
2022-08-30T19:26:24.407Z,24.40
2022-08-30T19:28:55.386Z,24.30
2022-08-30T19:31:23.129Z,24.30
2022-08-30T19:33:50.914Z,24.20
2022-08-30T19:36:18.607Z,24.20
2022-08-30T19:38:46.327Z,24.10
2022-08-30T19:41:14.047Z,24.00
2022-08-30T19:43:43.066Z,24.00
2022-08-30T19:46:11.003Z,23.90
2022-08-30T19:48:42.953Z,23.90
2022-08-30T19:51:11.562Z,23.80
2022-08-30T19:53:42.204Z,23.80
2022-08-30T19:56:09.985Z,23.70
2022-08-30T19:58:37.768Z,23.70
2022-08-30T20:01:10.871Z,23.60
2022-08-30T20:03:40.473Z,23.60
2022-08-30T20:06:08.857Z,23.50
2022-08-30T20:08:37.156Z,23.50
2022-08-30T20:11:05.194Z,23.40
2022-08-30T20:13:33.844Z,23.40
2022-08-30T20:16:02.320Z,23.30
2022-08-30T20:18:31.423Z,23.30
2022-08-30T20:20:59.155Z,23.30
2022-08-30T20:23:28.334Z,23.20
2022-08-30T20:24:32.308Z,24.60
2022-08-30T20:25:56.808Z,23.10
2022-08-30T20:28:25.308Z,23.10
2022-08-30T20:30:55.634Z,23.00
2022-08-30T20:33:25.232Z,23.00
2022-08-30T20:35:54.290Z,23.00
2022-08-30T20:38:22.424Z,22.90
2022-08-30T20:40:51.221Z,22.90
2022-08-30T20:43:19.322Z,22.80
2022-08-30T20:45:47.175Z,22.80
2022-08-30T20:48:15.045Z,22.80
2022-08-30T20:50:43.036Z,22.80
2022-08-30T20:53:12.603Z,22.80
2022-08-30T20:55:41.307Z,22.80
2022-08-30T20:58:09.531Z,22.80
2022-08-30T21:00:37.539Z,22.80
2022-08-30T21:03:08.348Z,22.70
2022-08-30T21:05:55.082Z,22.70
2022-08-30T21:08:25.209Z,22.70
2022-08-30T21:10:52.966Z,22.70
2022-08-30T21:13:20.844Z,22.60
2022-08-30T21:15:51.523Z,22.60
2022-08-30T21:18:19.485Z,22.60
2022-08-30T21:20:47.330Z,22.70
2022-08-30T21:23:15.100Z,22.60
2022-08-30T21:25:44.583Z,22.60
2022-08-30T21:28:12.318Z,22.60
2022-08-30T21:30:40.130Z,22.50
2022-08-30T21:33:08.727Z,22.50
2022-08-30T21:35:55.282Z,22.40
2022-08-30T21:38:24.561Z,22.40
2022-08-30T21:40:53.665Z,22.40
2022-08-30T21:43:21.449Z,22.40
2022-08-30T21:45:51.155Z,22.30
2022-08-30T21:48:19.050Z,22.30
2022-08-30T21:50:46.962Z,22.30
2022-08-30T21:53:15.403Z,22.20
2022-08-30T21:55:45.628Z,22.30
2022-08-30T21:58:17.346Z,22.20
2022-08-30T22:00:45.064Z,22.20
2022-08-30T22:03:12.870Z,22.20
2022-08-30T22:05:40.829Z,22.20
2022-08-30T22:08:08.522Z,22.20
2022-08-30T22:10:36.504Z,22.10
2022-08-30T22:13:04.498Z,22.10
2022-08-30T22:15:33.567Z,22.10
2022-08-30T22:18:01.623Z,22.10
2022-08-30T22:20:30.575Z,22.10
2022-08-30T22:22:58.450Z,22.00
2022-08-30T22:25:26.495Z,22.00
2022-08-30T22:27:54.460Z,22.00
2022-08-30T22:30:22.181Z,22.00
2022-08-30T22:32:51.419Z,21.90
2022-08-30T22:35:20.495Z,21.90
2022-08-30T22:37:53.240Z,21.90
2022-08-30T22:40:21.815Z,21.80
2022-08-30T22:42:49.591Z,21.90
2022-08-30T22:45:17.547Z,21.90
2022-08-30T22:47:45.265Z,21.80
2022-08-30T22:50:14.368Z,21.80
2022-08-30T22:52:42.095Z,21.80
2022-08-30T22:55:10.207Z,21.80
2022-08-30T22:57:38.389Z,21.80
2022-08-30T23:00:07.550Z,21.80
2022-08-30T23:02:36.423Z,21.80
2022-08-30T23:05:04.751Z,21.70
2022-08-30T23:07:33.859Z,21.70
2022-08-30T23:10:01.731Z,21.70
2022-08-30T23:12:29.663Z,21.70
2022-08-30T23:14:57.426Z,21.60
2022-08-30T23:17:25.413Z,21.60
2022-08-30T23:19:59.130Z,21.60
2022-08-30T23:22:26.879Z,21.60
2022-08-30T23:25:15.813Z,21.60
2022-08-30T23:28:01.995Z,21.60
2022-08-30T23:30:47.569Z,21.50
2022-08-30T23:33:32.755Z,21.50
2022-08-30T23:36:17.943Z,21.50
2022-08-30T23:39:02.954Z,21.50
2022-08-30T23:41:51.022Z,21.50
2022-08-30T23:44:36.247Z,21.50
2022-08-30T23:47:21.339Z,21.40
2022-08-30T23:50:06.494Z,21.40
2022-08-30T23:52:51.604Z,21.40
2022-08-30T23:55:37.446Z,21.40
2022-08-30T23:58:23.951Z,21.40
